Time;durP1;ratioP1;P1;durP2;ratioP2;P2;SDS_P1;SDS_P2;PMS_P1;PMS_P2;Temp;Humidity;BMP_temperature;BMP_pressure;BME280_temperature;BME280_humidity;BME280_pressure;Samples;Min_cycle;Max_cycle;Signal;HPM_P1;HPM_P2
2023/06/03 00:02:01;;;;;;;9.60;4.95;;;;;;;20.22;65.54;100736.94;5016325;28;20383;-87
2023/06/03 00:04:30;;;;;;;12.65;5.45;;;;;;;20.11;65.83;100733.16;5034257;28;20404;-89
2023/06/03 00:06:56;;;;;;;11.98;5.60;;;;;;;20.08;66.26;100740.88;5021280;28;20462;-90
2023/06/03 00:09:22;;;;;;;10.63;5.15;;;;;;;20.17;65.97;100737.63;4998126;28;20385;-89
2023/06/03 00:11:47;;;;;;;11.37;5.47;;;;;;;20.19;65.89;100740.09;4995797;28;20478;-89
2023/06/03 00:14:13;;;;;;;10.30;5.25;;;;;;;20.35;65.37;100741.28;4996245;28;20384;-88
2023/06/03 00:16:38;;;;;;;10.80;5.10;;;;;;;20.50;64.69;100755.06;5015564;28;20509;-88
2023/06/03 00:19:03;;;;;;;13.15;5.45;;;;;;;20.57;64.14;100750.38;5014589;28;20466;-87
2023/06/03 00:21:30;;;;;;;6.53;4.80;;;;;;;20.49;64.53;100758.00;5020671;28;20376;-90
2023/06/03 00:23:55;;;;;;;8.20;4.78;;;;;;;20.48;64.34;100751.00;5050290;28;20400;-90
2023/06/03 00:26:22;;;;;;;13.23;5.43;;;;;;;20.49;64.22;100756.16;5009793;28;20741;-89
2023/06/03 00:28:48;;;;;;;10.10;5.07;;;;;;;20.40;64.26;100758.38;5013720;28;20380;-86
2023/06/03 00:31:14;;;;;;;12.60;6.20;;;;;;;20.41;64.30;100761.88;5013528;28;20376;-88
2023/06/03 00:33:39;;;;;;;9.70;5.22;;;;;;;20.43;64.55;100774.03;4996459;28;20452;-87
2023/06/03 00:36:05;;;;;;;8.93;5.10;;;;;;;20.51;64.04;100769.34;5024111;28;20408;-87
2023/06/03 00:38:31;;;;;;;11.02;5.53;;;;;;;20.64;63.47;100771.84;5032576;28;20408;-90
2023/06/03 00:40:57;;;;;;;12.57;5.70;;;;;;;20.73;63.40;100775.00;5035186;28;20407;-91
2023/06/03 00:43:22;;;;;;;12.50;5.77;;;;;;;20.85;63.20;100781.22;5019073;28;20411;-91
2023/06/03 00:45:48;;;;;;;12.10;5.55;;;;;;;20.84;63.67;100792.22;5018880;28;20399;-92
2023/06/03 00:48:14;;;;;;;10.93;5.37;;;;;;;20.77;63.73;100797.72;5020867;28;20423;-90
2023/06/03 00:50:39;;;;;;;10.13;5.35;;;;;;;20.72;64.23;100801.09;4996926;28;20443;-91
2023/06/03 00:53:07;;;;;;;10.35;5.45;;;;;;;20.69;64.35;100806.16;4995927;28;20377;-88
2023/06/03 00:55:33;;;;;;;10.57;5.28;;;;;;;20.66;64.51;100818.22;4995078;28;20876;-88
2023/06/03 00:57:59;;;;;;;10.20;5.28;;;;;;;20.56;64.68;100816.09;4999136;28;20387;-87
2023/06/03 01:00:25;;;;;;;9.48;5.20;;;;;;;20.50;64.93;100808.13;4999802;28;20443;-87
2023/06/03 01:02:50;;;;;;;8.77;5.07;;;;;;;20.53;64.79;100811.16;5018683;28;20408;-86
2023/06/03 01:05:16;;;;;;;10.93;5.40;;;;;;;20.53;65.06;100803.09;5006784;28;20414;-84
2023/06/03 01:08:15;;;;;;;8.68;5.43;;;;;;;20.52;64.89;100798.75;5008139;28;20486;-83
2023/06/03 01:10:46;;;;;;;9.03;5.63;;;;;;;20.52;65.02;100804.13;5005154;28;20933;-83
2023/06/03 01:13:24;;;;;;;10.93;4.97;;;;;;;20.47;65.01;100787.84;5022957;28;20744;-83
2023/06/03 01:15:53;;;;;;;12.23;5.60;;;;;;;20.55;64.96;100792.09;5022967;28;20426;-83
2023/06/03 01:18:20;;;;;;;8.20;5.15;;;;;;;20.56;64.99;100791.84;5021155;28;20407;-81
2023/06/03 01:20:48;;;;;;;8.57;5.25;;;;;;;20.58;64.94;100788.91;5019665;28;20395;-81
2023/06/03 01:23:21;;;;;;;8.80;5.35;;;;;;;20.58;64.89;100786.22;5019316;28;20384;-81
2023/06/03 01:25:50;;;;;;;7.35;5.07;;;;;;;20.61;64.75;100786.59;5020414;28;20411;-80
2023/06/03 01:28:16;;;;;;;9.15;5.38;;;;;;;20.70;64.48;100794.34;5019072;28;20404;-81
2023/06/03 01:30:42;;;;;;;9.75;5.38;;;;;;;20.75;64.63;100799.84;5019303;28;20384;-80
2023/06/03 01:33:07;;;;;;;7.35;5.18;;;;;;;20.69;64.54;100790.81;5018300;28;20379;-79
2023/06/03 01:35:34;;;;;;;10.47;5.20;;;;;;;20.69;64.54;100785.44;5000288;28;20486;-79
2023/06/03 01:38:00;;;;;;;8.30;5.20;;;;;;;20.78;64.36;100783.22;5017019;28;20469;-80
2023/06/03 01:40:26;;;;;;;8.15;5.18;;;;;;;20.87;64.02;100783.63;5017340;28;20380;-80
2023/06/03 01:42:52;;;;;;;9.20;5.72;;;;;;;20.87;63.84;100786.34;5017613;28;20398;-80
2023/06/03 01:45:17;;;;;;;10.30;5.37;;;;;;;20.96;63.51;100784.94;5017359;28;20399;-79
2023/06/03 01:47:43;;;;;;;7.97;5.00;;;;;;;21.05;63.51;100788.91;4999134;28;20387;-79
2023/06/03 01:50:09;;;;;;;9.47;5.40;;;;;;;21.02;63.85;100797.44;5019614;28;20481;-81
2023/06/03 01:52:36;;;;;;;8.68;5.35;;;;;;;21.04;64.01;100789.13;5018459;28;20412;-81
2023/06/03 01:55:03;;;;;;;10.07;5.43;;;;;;;21.07;63.83;100789.47;5018116;28;20422;-79
2023/06/03 01:57:29;;;;;;;7.97;5.53;;;;;;;20.98;64.20;100789.03;4999805;28;20658;-79
2023/06/03 01:59:55;;;;;;;7.95;5.80;;;;;;;20.92;64.49;100800.75;4999098;28;20423;-80
2023/06/03 02:02:21;;;;;;;9.30;6.00;;;;;;;20.86;64.54;100785.53;5018900;28;20377;-80
2023/06/03 02:04:47;;;;;;;8.40;5.40;;;;;;;20.79;64.99;100795.59;5019190;28;20422;-80
2023/06/03 02:07:13;;;;;;;9.73;5.77;;;;;;;20.81;64.98;100796.19;5019319;28;20475;-81
2023/06/03 02:09:40;;;;;;;9.85;5.88;;;;;;;20.82;65.08;100800.53;5020591;28;20384;-80
2023/06/03 02:12:05;;;;;;;9.93;6.00;;;;;;;20.77;65.15;100806.63;5001958;28;20384;-80
2023/06/03 02:14:34;;;;;;;8.82;5.55;;;;;;;20.79;65.26;100792.91;5016459;28;20386;-80
2023/06/03 02:17:00;;;;;;;8.57;5.60;;;;;;;20.67;65.82;100809.09;5017923;28;21271;-81
2023/06/03 02:19:26;;;;;;;7.78;5.97;;;;;;;20.57;66.43;100798.88;5018656;28;20443;-81
2023/06/03 02:21:52;;;;;;;8.27;5.70;;;;;;;20.54;66.68;100804.72;5001781;28;20471;-80
2023/06/03 02:24:19;;;;;;;10.93;5.70;;;;;;;20.43;66.91;100792.88;5018753;28;20380;-80
2023/06/03 02:26:52;;;;;;;9.82;5.80;;;;;;;20.34;67.32;100794.28;5019020;28;20388;-81
2023/06/03 02:29:22;;;;;;;10.83;6.17;;;;;;;20.36;67.50;100797.56;5020637;28;20459;-80
2023/06/03 02:31:48;;;;;;;9.48;5.90;;;;;;;20.37;67.31;100806.47;5002212;28;20869;-81
2023/06/03 02:34:14;;;;;;;9.73;6.13;;;;;;;20.47;67.06;100811.28;5019252;28;20845;-80
2023/06/03 02:36:39;;;;;;;11.55;6.65;;;;;;;20.58;66.46;100811.28;5018626;28;20412;-81
2023/06/03 02:39:07;;;;;;;8.82;5.65;;;;;;;20.68;65.96;100805.34;5018742;28;20393;-81
2023/06/03 02:41:33;;;;;;;9.48;5.75;;;;;;;20.62;65.97;100812.50;5016253;28;20467;-80
2023/06/03 02:43:58;;;;;;;9.90;6.10;;;;;;;20.53;66.18;100802.28;5017761;28;20781;-81
2023/06/03 02:46:24;;;;;;;9.63;5.83;;;;;;;20.48;66.26;100808.34;5019174;28;20380;-81
2023/06/03 02:48:49;;;;;;;8.23;5.95;;;;;;;20.48;66.32;100818.31;5019326;28;20388;-80
2023/06/03 02:51:15;;;;;;;11.37;6.23;;;;;;;20.54;66.12;100817.38;5018650;28;20384;-81
2023/06/03 02:53:40;;;;;;;11.85;6.65;;;;;;;20.54;66.10;100809.28;5001207;28;20717;-80
2023/06/03 02:56:06;;;;;;;9.40;6.57;;;;;;;20.57;66.00;100809.63;5019063;28;20428;-80
2023/06/03 02:58:31;;;;;;;8.13;5.73;;;;;;;20.56;66.10;100813.41;5015275;28;20388;-80
2023/06/03 03:00:57;;;;;;;8.20;5.90;;;;;;;20.63;66.17;100816.00;5016618;28;20384;-80
2023/06/03 03:03:24;;;;;;;8.30;5.80;;;;;;;20.67;65.82;100813.66;5018181;28;20388;-81
2023/06/03 03:05:51;;;;;;;9.57;6.25;;;;;;;20.74;65.56;100811.66;5017513;28;20884;-80
2023/06/03 03:08:17;;;;;;;10.30;6.18;;;;;;;20.80;65.26;100810.72;5017741;28;20806;-80
2023/06/03 03:10:43;;;;;;;12.57;5.75;;;;;;;20.88;64.87;100815.75;5016283;28;20445;-80
2023/06/03 03:13:08;;;;;;;8.97;5.60;;;;;;;20.91;64.77;100809.88;5016148;28;20403;-80
2023/06/03 03:15:34;;;;;;;9.88;5.63;;;;;;;20.88;65.11;100814.94;5015088;28;20457;-80
2023/06/03 03:18:00;;;;;;;12.40;5.70;;;;;;;20.91;64.70;100828.75;5016688;28;20425;-79
2023/06/03 03:20:28;;;;;;;7.55;5.30;;;;;;;20.91;64.54;100822.56;5018457;28;20451;-78
2023/06/03 03:22:54;;;;;;;7.68;5.85;;;;;;;20.96;64.42;100831.56;5016465;28;20388;-78
2023/06/03 03:25:20;;;;;;;8.83;5.73;;;;;;;21.02;64.29;100824.41;5015908;28;20380;-77
2023/06/03 03:27:46;;;;;;;8.88;5.50;;;;;;;21.02;64.15;100816.31;4998673;28;20384;-78
2023/06/03 03:30:12;;;;;;;10.82;6.10;;;;;;;20.95;64.35;100821.81;5015976;28;20458;-79
2023/06/03 03:32:37;;;;;;;10.85;6.00;;;;;;;20.92;64.40;100816.09;5015930;28;20399;-78
2023/06/03 03:35:15;;;;;;;7.33;5.77;;;;;;;20.92;64.46;100816.94;5013973;28;20487;-78
2023/06/03 03:37:42;;;;;;;10.35;6.20;;;;;;;20.97;64.44;100818.91;5013474;28;20418;-78
2023/06/03 03:40:16;;;;;;;7.70;5.53;;;;;;;20.95;64.27;100821.03;5012659;28;20412;-78
2023/06/03 03:42:41;;;;;;;7.10;5.38;;;;;;;20.98;64.42;100831.34;5012587;28;20403;-78
2023/06/03 03:45:18;;;;;;;9.83;5.43;;;;;;;20.99;64.43;100841.03;5013434;28;20400;-79
2023/06/03 03:47:47;;;;;;;8.68;5.93;;;;;;;21.03;64.21;100820.66;5013180;28;20406;-79
2023/06/03 03:50:34;;;;;;;10.77;6.00;;;;;;;21.11;63.84;100831.06;5013033;28;20832;-79
2023/06/03 03:53:03;;;;;;;6.95;5.47;;;;;;;21.15;63.67;100826.03;5013500;28;20919;-80
2023/06/03 03:55:29;;;;;;;7.43;5.13;;;;;;;21.12;63.59;100830.03;5008145;28;20863;-79
2023/06/03 03:57:54;;;;;;;8.88;5.32;;;;;;;21.10;63.76;100831.31;4994760;28;20405;-79
2023/06/03 04:00:21;;;;;;;8.40;5.30;;;;;;;21.09;63.67;100833.19;4995287;28;20402;-80
2023/06/03 04:02:49;;;;;;;10.48;5.20;;;;;;;21.06;63.56;100838.22;4988687;28;20458;-80
2023/06/03 04:05:17;;;;;;;11.65;5.55;;;;;;;20.98;63.91;100840.22;4995354;28;20405;-81
2023/06/03 04:07:46;;;;;;;8.25;5.45;;;;;;;20.98;63.99;100852.91;4981565;28;20384;-81
2023/06/03 04:10:12;;;;;;;17.17;6.80;;;;;;;20.95;64.18;100853.34;5003684;28;20405;-81
2023/06/03 04:12:38;;;;;;;7.53;5.22;;;;;;;20.98;63.94;100851.00;4994772;28;20464;-81
2023/06/03 04:15:04;;;;;;;8.55;5.22;;;;;;;21.02;63.70;100850.53;4986167;28;20426;-85
2023/06/03 04:17:30;;;;;;;10.25;5.47;;;;;;;21.07;63.56;100856.88;4984386;28;20501;-87
2023/06/03 04:20:00;;;;;;;13.45;5.63;;;;;;;21.07;63.60;100856.88;5007707;28;20963;-87
2023/06/03 04:22:26;;;;;;;10.25;5.57;;;;;;;21.11;63.70;100851.81;5015513;28;20391;-86
2023/06/03 04:25:00;;;;;;;6.78;4.95;;;;;;;21.06;63.74;100840.94;4979365;28;20394;-86
2023/06/03 04:27:26;;;;;;;8.98;5.03;;;;;;;21.08;63.67;100853.09;4998491;28;20733;-84
2023/06/03 04:29:51;;;;;;;9.57;5.50;;;;;;;21.17;63.41;100843.59;5001665;28;20853;-82
2023/06/03 04:32:17;;;;;;;14.43;5.77;;;;;;;21.20;63.33;100845.81;4992253;28;20743;-82
2023/06/03 04:34:55;;;;;;;12.67;5.30;;;;;;;21.28;63.42;100855.41;5006736;28;20398;-82
2023/06/03 04:37:22;;;;;;;10.02;5.63;;;;;;;21.28;63.50;100854.59;4983203;28;20410;-80
2023/06/03 04:39:51;;;;;;;10.43;5.88;;;;;;;21.23;63.94;100855.31;5000858;28;20740;-79
2023/06/03 04:42:17;;;;;;;8.38;5.78;;;;;;;21.21;63.74;100852.00;4984433;28;20475;-80
2023/06/03 04:44:43;;;;;;;13.10;6.00;;;;;;;21.24;63.68;100854.25;5006771;28;20396;-80
2023/06/03 04:47:12;;;;;;;10.95;6.03;;;;;;;21.38;63.60;100861.00;4995902;28;20693;-80
2023/06/03 04:49:40;;;;;;;14.68;5.57;;;;;;;21.58;64.83;100857.94;5009210;28;20432;-83
2023/06/03 04:52:12;;;;;;;7.38;5.35;;;;;;;21.94;65.17;100852.41;4995169;28;20874;-83
2023/06/03 04:54:38;;;;;;;10.57;5.77;;;;;;;22.17;64.60;100850.66;5009599;28;20440;-83
2023/06/03 04:57:04;;;;;;;6.80;4.43;;;;;;;22.14;63.93;100854.66;5010188;28;20412;-83
2023/06/03 04:59:29;;;;;;;7.88;4.90;;;;;;;22.12;64.15;100856.78;5005056;28;20694;-86
2023/06/03 05:01:55;;;;;;;8.83;4.97;;;;;;;22.15;63.54;100862.50;4982478;28;20440;-86
2023/06/03 05:04:22;;;;;;;9.43;4.77;;;;;;;22.28;63.42;100866.00;5000851;28;20767;-84
2023/06/03 05:06:48;;;;;;;9.38;5.18;;;;;;;22.49;62.66;100864.41;5010733;28;20494;-84
2023/06/03 05:09:14;;;;;;;13.88;5.88;;;;;;;22.62;62.21;100872.22;4990459;28;20390;-85
2023/06/03 05:11:40;;;;;;;7.72;4.80;;;;;;;22.19;61.83;100862.84;4993440;28;20388;-81
2023/06/03 05:14:06;;;;;;;9.90;5.17;;;;;;;22.00;62.04;100866.81;5002143;28;20410;-80
2023/06/03 05:16:32;;;;;;;9.27;5.70;;;;;;;21.96;62.53;100869.16;4998698;28;20417;-80
2023/06/03 05:18:57;;;;;;;9.30;5.20;;;;;;;21.87;62.28;100867.94;4996626;28;20401;-81
2023/06/03 05:21:23;;;;;;;11.00;5.90;;;;;;;21.84;62.55;100871.94;5007817;28;20416;-80
2023/06/03 05:23:48;;;;;;;10.63;6.57;;;;;;;21.77;62.43;100882.88;4995184;28;20875;-80
2023/06/03 05:26:14;;;;;;;10.20;6.10;;;;;;;21.75;62.82;100876.06;5001798;28;20403;-80
2023/06/03 05:28:39;;;;;;;8.87;6.27;;;;;;;21.75;62.48;100881.44;4999279;28;20386;-80
2023/06/03 05:31:05;;;;;;;10.25;5.90;;;;;;;21.86;62.74;100877.91;5000302;28;20380;-80
2023/06/03 05:33:32;;;;;;;10.27;6.20;;;;;;;21.94;62.74;100882.91;4979846;28;20380;-80
2023/06/03 05:35:58;;;;;;;7.75;5.82;;;;;;;22.11;62.69;100891.06;5000145;28;20986;-78
2023/06/03 05:38:24;;;;;;;9.30;5.93;;;;;;;22.18;62.32;100896.28;5002012;28;20390;-79
2023/06/03 05:40:51;;;;;;;7.15;5.15;;;;;;;22.23;62.71;100887.47;5003957;28;20396;-79
2023/06/03 05:43:17;;;;;;;6.40;4.90;;;;;;;22.38;62.11;100900.44;5008417;28;20399;-78
2023/06/03 05:45:43;;;;;;;7.07;4.90;;;;;;;22.33;62.00;100895.78;5000803;28;20400;-77
2023/06/03 05:48:09;;;;;;;7.55;4.50;;;;;;;22.44;61.72;100902.19;5007803;28;20390;-78
2023/06/03 05:50:37;;;;;;;8.30;4.50;;;;;;;22.45;61.22;100898.41;4997163;28;20390;-78
2023/06/03 05:53:03;;;;;;;4.90;4.30;;;;;;;22.48;61.37;100904.13;5000273;28;20414;-79
2023/06/03 05:55:29;;;;;;;7.63;4.10;;;;;;;22.54;61.06;100894.22;5012122;28;20412;-78
2023/06/03 05:57:55;;;;;;;6.95;4.13;;;;;;;22.54;61.03;100896.94;4999453;28;20397;-79
2023/06/03 06:00:21;;;;;;;8.80;4.38;;;;;;;22.59;60.91;100893.50;5003656;28;20420;-77
2023/06/03 06:02:47;;;;;;;9.40;5.07;;;;;;;22.56;60.65;100900.19;5002084;28;20421;-78
2023/06/03 06:05:13;;;;;;;8.45;4.60;;;;;;;22.56;60.85;100897.50;4993628;28;20772;-78
2023/06/03 06:07:39;;;;;;;10.93;5.35;;;;;;;22.58;60.80;100887.28;4998615;28;20453;-78
2023/06/03 06:10:05;;;;;;;9.90;5.10;;;;;;;22.62;60.39;100893.84;4989577;28;20385;-78
2023/06/03 06:12:30;;;;;;;10.88;5.32;;;;;;;22.79;62.46;100901.09;4999065;28;20393;-80
2023/06/03 06:14:56;;;;;;;11.70;5.13;;;;;;;22.98;63.04;100897.06;5010148;28;21537;-80
2023/06/03 06:17:21;;;;;;;8.50;5.03;;;;;;;23.21;62.88;100898.78;5001021;28;20477;-82
2023/06/03 06:19:47;;;;;;;7.90;4.90;;;;;;;23.42;62.78;100897.16;5013422;28;20488;-82
2023/06/03 06:22:13;;;;;;;7.63;4.68;;;;;;;23.44;62.39;100886.91;4979117;28;20402;-81
2023/06/03 06:24:38;;;;;;;8.87;4.80;;;;;;;23.60;62.09;100887.91;4995109;28;20390;-82
2023/06/03 06:27:05;;;;;;;10.27;4.77;;;;;;;23.75;61.77;100889.97;5010456;28;20407;-82
2023/06/03 06:29:31;;;;;;;9.75;4.60;;;;;;;23.67;60.69;100893.94;5012871;28;20392;-81
2023/06/03 06:31:58;;;;;;;7.35;4.43;;;;;;;23.51;60.32;100899.44;4997181;28;20390;-81
2023/06/03 06:34:29;;;;;;;9.13;4.30;;;;;;;23.52;59.95;100896.47;4989602;28;20388;-81
2023/06/03 06:36:55;;;;;;;6.20;4.03;;;;;;;23.62;59.81;100896.59;5007540;28;20406;-81
2023/06/03 06:39:33;;;;;;;7.72;4.57;;;;;;;23.44;59.43;100892.31;5016861;28;20388;-82
2023/06/03 06:42:27;;;;;;;7.47;4.25;;;;;;;23.33;59.61;100892.44;5001301;28;20489;-79
2023/06/03 06:44:53;;;;;;;7.22;4.40;;;;;;;23.32;59.21;100899.75;4992617;28;20408;-80
2023/06/03 06:47:21;;;;;;;9.73;4.88;;;;;;;23.25;59.56;100905.31;4994688;28;20389;-80
2023/06/03 06:49:48;;;;;;;7.57;4.20;;;;;;;23.27;59.73;100896.97;4994764;28;20532;-80
2023/06/03 06:52:14;;;;;;;8.18;4.40;;;;;;;23.31;59.59;100895.38;4994188;28;20386;-79
2023/06/03 06:54:41;;;;;;;6.00;4.18;;;;;;;23.40;59.39;100909.31;4995769;28;20416;-80
2023/06/03 06:57:06;;;;;;;7.97;4.63;;;;;;;23.48;58.93;100906.16;5013464;28;20900;-79
2023/06/03 06:59:32;;;;;;;7.77;4.20;;;;;;;23.45;58.79;100904.78;5012838;28;20497;-81
2023/06/03 07:01:58;;;;;;;8.65;4.50;;;;;;;23.41;58.59;100900.94;5015089;28;20384;-81
2023/06/03 07:04:23;;;;;;;7.73;4.40;;;;;;;23.41;58.92;100919.88;5013996;28;20394;-81
2023/06/03 07:06:49;;;;;;;6.40;4.03;;;;;;;23.30;58.77;100915.41;5012989;28;20397;-81
2023/06/03 07:09:15;;;;;;;8.85;4.13;;;;;;;23.13;59.65;100911.91;5014892;28;20387;-83
2023/06/03 07:11:46;;;;;;;4.53;3.90;;;;;;;23.22;59.72;100919.34;5013629;28;20402;-83
2023/06/03 07:14:12;;;;;;;6.43;4.35;;;;;;;23.27;59.23;100924.81;5013318;28;20392;-83
2023/06/03 07:16:40;;;;;;;6.25;4.40;;;;;;;23.25;59.63;100923.44;5013653;28;20414;-82
2023/06/03 07:19:06;;;;;;;8.27;5.00;;;;;;;23.34;59.53;100929.25;5011916;28;20911;-82
2023/06/03 07:21:33;;;;;;;7.03;4.30;;;;;;;23.30;59.83;100931.63;5026925;28;20419;-83
2023/06/03 07:24:00;;;;;;;7.78;4.70;;;;;;;23.21;60.45;100931.25;5027963;28;20388;-80
2023/06/03 07:26:27;;;;;;;4.63;4.03;;;;;;;23.31;60.08;100930.56;4996611;28;20451;-80
2023/06/03 07:28:56;;;;;;;8.57;4.25;;;;;;;23.42;60.12;100931.50;5013406;28;20376;-79
2023/06/03 07:31:22;;;;;;;5.85;4.10;;;;;;;23.41;60.03;100936.09;5011812;28;20380;-80
2023/06/03 07:33:52;;;;;;;7.50;4.40;;;;;;;23.35;59.57;100937.09;5014728;28;20399;-83
2023/06/03 07:36:24;;;;;;;5.85;3.83;;;;;;;23.24;59.37;100938.03;5018357;28;20684;-81
2023/06/03 07:39:02;;;;;;;6.68;4.13;;;;;;;23.29;59.01;100938.91;5014595;28;20376;-80
2023/06/03 07:41:36;;;;;;;7.90;4.07;;;;;;;23.43;58.99;100935.84;5015040;28;20383;-80
2023/06/03 07:44:13;;;;;;;5.50;3.92;;;;;;;23.50;58.99;100939.19;5014734;28;20933;-82
2023/06/03 07:46:48;;;;;;;7.70;4.20;;;;;;;23.52;59.23;100936.25;5013517;28;20853;-81
2023/06/03 07:49:16;;;;;;;8.98;4.10;;;;;;;23.60;58.80;100950.13;5013191;28;20876;-80
2023/06/03 07:51:44;;;;;;;6.40;4.30;;;;;;;23.52;59.01;100949.78;5013274;28;20385;-81
2023/06/03 07:54:10;;;;;;;6.47;4.60;;;;;;;23.78;58.93;100953.59;5012769;28;20380;-81
2023/06/03 07:56:36;;;;;;;6.30;4.10;;;;;;;23.95;58.49;100948.97;4995986;28;20427;-81
2023/06/03 07:59:03;;;;;;;6.73;4.37;;;;;;;24.08;58.33;100949.66;5013318;28;20480;-82
2023/06/03 08:01:29;;;;;;;8.77;4.63;;;;;;;24.11;57.88;100949.13;5013139;28;20432;-82
2023/06/03 08:03:55;;;;;;;7.30;4.47;;;;;;;24.00;57.77;100957.16;5013279;28;20445;-81
2023/06/03 08:06:25;;;;;;;6.47;4.20;;;;;;;24.13;57.13;100953.22;4991876;28;20531;-81
2023/06/03 08:08:51;;;;;;;6.88;4.70;;;;;;;24.27;56.79;100959.03;5023975;28;20384;-81
2023/06/03 08:11:16;;;;;;;6.75;4.80;;;;;;;24.31;57.05;100964.78;4997783;28;20380;-81
2023/06/03 08:13:42;;;;;;;7.82;4.30;;;;;;;24.39;57.09;100973.25;4981429;28;20396;-81
2023/06/03 08:16:08;;;;;;;5.87;3.70;;;;;;;24.44;56.31;100964.38;5014847;28;20431;-82
2023/06/03 08:18:33;;;;;;;5.75;3.80;;;;;;;24.50;56.20;100971.47;5013296;28;20402;-81
2023/06/03 08:21:02;;;;;;;9.07;4.13;;;;;;;24.56;56.56;100973.19;5015846;28;20407;-82
2023/06/03 08:23:28;;;;;;;8.23;4.03;;;;;;;24.69;55.91;100974.66;5017197;28;20421;-80
2023/06/03 08:25:53;;;;;;;7.80;3.90;;;;;;;24.75;55.58;100976.31;5013019;28;20426;-80
2023/06/03 08:28:19;;;;;;;6.27;3.80;;;;;;;24.84;55.79;100976.66;5016673;28;20395;-80
2023/06/03 08:30:44;;;;;;;7.07;3.88;;;;;;;24.90;55.54;100966.69;5014072;28;20839;-81
2023/06/03 08:33:10;;;;;;;6.23;3.37;;;;;;;25.00;54.93;100974.91;5014528;28;20388;-81
2023/06/03 08:35:35;;;;;;;5.13;3.60;;;;;;;25.04;54.67;100980.63;5014804;28;20387;-81
2023/06/03 08:38:02;;;;;;;7.80;4.30;;;;;;;25.04;54.57;100978.72;5014664;28;20753;-81
2023/06/03 08:40:31;;;;;;;7.10;3.78;;;;;;;25.15;54.08;100975.00;4998853;28;20488;-82
2023/06/03 08:43:02;;;;;;;5.05;3.58;;;;;;;25.24;53.78;100982.66;5001175;28;20424;-80
2023/06/03 08:45:36;;;;;;;6.07;3.70;;;;;;;25.29;53.50;100982.72;5011254;28;20884;-79
2023/06/03 08:48:14;;;;;;;7.72;3.70;;;;;;;25.32;52.85;100980.28;5011916;28;20486;-81
2023/06/03 08:50:45;;;;;;;5.43;3.50;;;;;;;25.40;52.49;100980.88;5005074;28;20392;-80
2023/06/03 08:53:11;;;;;;;6.78;3.55;;;;;;;25.40;52.21;100984.41;5011971;28;20402;-80
2023/06/03 08:55:39;;;;;;;4.82;3.47;;;;;;;25.50;52.30;100989.91;5009987;28;20478;-81
2023/06/03 08:58:12;;;;;;;5.45;3.63;;;;;;;25.60;52.25;100983.69;5012280;28;20411;-80
2023/06/03 09:00:39;;;;;;;6.45;3.85;;;;;;;25.60;52.07;100983.69;4994444;28;20870;-80
2023/06/03 09:03:06;;;;;;;7.27;3.80;;;;;;;25.55;51.61;100986.38;5012219;28;20892;-82
2023/06/03 09:05:35;;;;;;;5.68;3.55;;;;;;;25.59;51.95;100983.94;5012015;28;20465;-82
2023/06/03 09:08:01;;;;;;;7.20;4.00;;;;;;;25.75;52.14;100986.50;5011984;28;20394;-79
2023/06/03 09:10:27;;;;;;;3.97;3.13;;;;;;;25.70;51.28;100986.47;5012754;28;20746;-81
2023/06/03 09:12:56;;;;;;;6.07;3.90;;;;;;;25.73;51.50;100993.25;5015264;28;20388;-80
2023/06/03 09:15:22;;;;;;;4.50;3.30;;;;;;;25.41;50.97;100985.22;5013773;28;20398;-81
2023/06/03 09:17:48;;;;;;;5.72;3.67;;;;;;;25.41;51.26;100986.06;4999843;28;20412;-82
2023/06/03 09:20:14;;;;;;;6.77;3.50;;;;;;;25.48;51.13;100983.91;5016259;28;20522;-82
2023/06/03 09:22:46;;;;;;;7.03;4.22;;;;;;;25.84;51.27;100988.69;4999412;28;20446;-82
2023/06/03 09:25:12;;;;;;;7.00;4.47;;;;;;;25.95;51.17;100982.25;4997950;28;20388;-80
2023/06/03 09:27:39;;;;;;;9.53;5.00;;;;;;;26.02;51.38;100987.41;4997756;28;20784;-81
2023/06/03 09:30:06;;;;;;;10.27;5.00;;;;;;;26.11;51.42;100983.13;5016549;28;20454;-80
2023/06/03 09:32:34;;;;;;;13.77;4.77;;;;;;;26.24;51.61;100988.03;4997986;28;20380;-81
2023/06/03 09:35:04;;;;;;;6.07;3.88;;;;;;;26.32;51.39;100987.50;5015410;28;20392;-81
2023/06/03 09:37:31;;;;;;;7.35;4.32;;;;;;;26.39;51.28;100981.81;5012709;28;20403;-82
2023/06/03 09:39:57;;;;;;;8.05;4.65;;;;;;;26.40;50.56;100974.47;5009431;28;20396;-81
2023/06/03 09:42:22;;;;;;;7.20;4.38;;;;;;;26.51;50.63;100976.13;5015802;28;20384;-80
2023/06/03 09:44:49;;;;;;;6.97;4.17;;;;;;;26.62;49.98;100983.22;4999450;28;20464;-80
2023/06/03 09:47:18;;;;;;;5.10;3.60;;;;;;;26.68;49.74;100982.13;5015816;28;20380;-81
2023/06/03 09:50:03;;;;;;;8.77;3.78;;;;;;;26.77;49.54;100985.13;5001209;28;20427;-81
2023/06/03 09:52:33;;;;;;;5.30;3.67;;;;;;;26.87;49.38;100985.13;5000475;28;20823;-83
2023/06/03 09:55:07;;;;;;;9.27;3.42;;;;;;;26.96;49.35;100988.13;4991032;28;20413;-80
2023/06/03 09:57:33;;;;;;;5.18;3.63;;;;;;;27.22;48.38;100991.59;5008700;28;20412;-80
2023/06/03 10:00:11;;;;;;;7.00;3.67;;;;;;;27.29;48.17;100990.56;5015197;28;20392;-81
2023/06/03 10:02:45;;;;;;;7.03;3.60;;;;;;;27.43;47.65;100986.16;5010977;28;20488;-81
2023/06/03 10:05:41;;;;;;;5.00;3.50;;;;;;;27.56;47.74;100985.56;5016278;28;20452;-81
2023/06/03 10:08:07;;;;;;;8.68;3.97;;;;;;;27.63;47.64;100990.72;5011363;28;20400;-81
2023/06/03 10:10:33;;;;;;;6.32;3.78;;;;;;;27.67;46.62;100983.63;4997216;28;20390;-83
2023/06/03 10:13:18;;;;;;;7.70;3.83;;;;;;;27.66;46.88;100982.00;5011913;28;20390;-83
2023/06/03 10:15:44;;;;;;;5.10;3.70;;;;;;;27.87;46.07;100973.75;4990731;28;20386;-82
2023/06/03 10:18:10;;;;;;;5.00;3.57;;;;;;;27.85;46.55;100984.91;5015921;28;20392;-81
2023/06/03 10:20:40;;;;;;;6.35;3.53;;;;;;;27.87;46.87;100973.75;5016496;28;20423;-82
2023/06/03 10:23:08;;;;;;;8.05;4.03;;;;;;;27.89;46.14;100971.53;5017639;28;20388;-80
2023/06/03 10:25:43;;;;;;;9.27;3.90;;;;;;;27.94;46.38;100968.81;5021808;28;20467;-80
2023/06/03 10:28:11;;;;;;;5.75;3.90;;;;;;;27.95;46.91;100971.28;5018364;28;20403;-83
2023/06/03 10:30:39;;;;;;;6.30;3.83;;;;;;;27.97;46.04;100973.72;5014199;28;20816;-81
2023/06/03 10:33:08;;;;;;;8.45;4.05;;;;;;;27.90;45.79;100973.19;5015441;28;20880;-81
2023/06/03 10:35:36;;;;;;;6.90;4.27;;;;;;;27.74;46.62;100964.25;5020064;28;20919;-84
2023/06/03 10:38:03;;;;;;;7.00;4.28;;;;;;;27.81;46.29;100967.50;4990708;28;20406;-82
2023/06/03 10:40:29;;;;;;;8.02;4.43;;;;;;;27.87;46.12;100968.28;5019046;28;21132;-82
2023/06/03 10:42:56;;;;;;;6.13;4.07;;;;;;;27.86;46.05;100970.22;5014493;28;20864;-82
2023/06/03 10:45:27;;;;;;;7.97;4.20;;;;;;;27.70;46.60;100961.28;5000822;28;20393;-82
2023/06/03 10:48:15;;;;;;;5.63;3.95;;;;;;;27.73;46.39;100954.44;5017866;28;20442;-83
2023/06/03 10:50:51;;;;;;;5.15;3.65;;;;;;;27.84;46.01;100954.13;5001552;28;20392;-83
2023/06/03 10:53:25;;;;;;;5.40;3.95;;;;;;;27.89;45.66;100952.47;5002922;28;20380;-82
2023/06/03 10:56:05;;;;;;;5.18;3.90;;;;;;;27.83;45.50;100946.25;5016221;28;20408;-82
2023/06/03 10:58:31;;;;;;;5.60;3.97;;;;;;;27.75;45.71;100944.91;5013867;28;20391;-81
2023/06/03 11:01:04;;;;;;;8.48;4.10;;;;;;;27.80;46.15;100944.91;5009207;28;20401;-82
2023/06/03 11:03:53;;;;;;;4.18;3.75;;;;;;;27.89;45.93;100936.94;4993343;28;20985;-81
2023/06/03 11:06:18;;;;;;;7.95;4.18;;;;;;;28.07;45.39;100949.13;5006189;28;20877;-81
2023/06/03 11:09:00;;;;;;;6.27;3.87;;;;;;;28.09;45.20;100955.13;5017695;28;20387;-83
2023/06/03 11:11:41;;;;;;;5.97;3.90;;;;;;;27.93;46.03;100950.84;5018260;28;20403;-82
2023/06/03 11:14:07;;;;;;;6.40;3.40;;;;;;;27.95;46.07;100954.13;5019740;28;20376;-83
2023/06/03 11:16:58;;;;;;;5.28;3.65;;;;;;;27.93;45.90;100946.22;5004288;28;20402;-81
2023/06/03 11:19:38;;;;;;;7.90;3.63;;;;;;;27.95;45.64;100938.59;5028575;28;20388;-84
2023/06/03 11:22:07;;;;;;;5.47;3.75;;;;;;;27.99;45.79;100938.84;5027877;28;20392;-83
2023/06/03 11:24:38;;;;;;;5.35;3.70;;;;;;;28.06;46.20;100943.97;5018568;28;20452;-84
2023/06/03 11:27:18;;;;;;;5.05;3.60;;;;;;;28.20;45.81;100931.34;5012552;28;20376;-81
2023/06/03 11:29:47;;;;;;;5.85;3.97;;;;;;;28.11;45.41;100936.59;5020855;28;20395;-81